sensor_id;sensor_type;location;lat;lon;timestamp;pressure;altitude;pressure_sealevel;temperature;humidity
8699;BME280;4386;51.236;6.742;2022-07-21T00:00:40;101376.28;;;24.26;67.66
8699;BME280;4386;51.236;6.742;2022-07-21T00:01:43;101370.88;;;24.26;67.83
8699;BME280;4386;51.236;6.742;2022-07-21T00:02:48;101367.94;;;24.28;67.79
8699;BME280;4386;51.236;6.742;2022-07-21T00:03:49;101367.13;;;24.27;67.83
8699;BME280;4386;51.236;6.742;2022-07-21T00:04:52;101360.66;;;24.28;67.92
8699;BME280;4386;51.236;6.742;2022-07-21T00:05:54;101365.06;;;24.29;67.71
8699;BME280;4386;51.236;6.742;2022-07-21T00:06:57;101366.75;;;24.30;67.68
8699;BME280;4386;51.236;6.742;2022-07-21T00:07:59;101361.97;;;24.32;67.75
8699;BME280;4386;51.236;6.742;2022-07-21T00:09:01;101362.59;;;24.34;67.64
8699;BME280;4386;51.236;6.742;2022-07-21T00:10:04;101363.44;;;24.35;67.82
8699;BME280;4386;51.236;6.742;2022-07-21T00:11:07;101362.59;;;24.34;67.73
8699;BME280;4386;51.236;6.742;2022-07-21T00:12:08;101365.13;;;24.36;67.91
8699;BME280;4386;51.236;6.742;2022-07-21T00:13:11;101365.13;;;24.36;67.66
8699;BME280;4386;51.236;6.742;2022-07-21T00:14:13;101365.97;;;24.36;68.04
8699;BME280;4386;51.236;6.742;2022-07-21T00:15:17;101368.00;;;24.34;68.09
8699;BME280;4386;51.236;6.742;2022-07-21T00:16:19;101373.81;;;24.31;68.48
8699;BME280;4386;51.236;6.742;2022-07-21T00:17:25;101375.72;;;24.31;68.68
8699;BME280;4386;51.236;6.742;2022-07-21T00:18:28;101376.91;;;24.28;68.61
8699;BME280;4386;51.236;6.742;2022-07-21T00:19:30;101377.97;;;24.27;68.95
8699;BME280;4386;51.236;6.742;2022-07-21T00:20:32;101383.41;;;24.27;68.59
8699;BME280;4386;51.236;6.742;2022-07-21T00:21:36;101375.28;;;24.27;68.40
8699;BME280;4386;51.236;6.742;2022-07-21T00:22:38;101376.28;;;24.26;68.67
8699;BME280;4386;51.236;6.742;2022-07-21T00:23:41;101377.13;;;24.27;68.69
8699;BME280;4386;51.236;6.742;2022-07-21T00:24:42;101380.03;;;24.25;68.44
8699;BME280;4386;51.236;6.742;2022-07-21T00:25:45;101370.22;;;24.24;68.40
8699;BME280;4386;51.236;6.742;2022-07-21T00:26:47;101380.41;;;24.22;68.83
8699;BME280;4386;51.236;6.742;2022-07-21T00:27:49;101383.31;;;24.21;68.46
8699;BME280;4386;51.236;6.742;2022-07-21T00:28:51;101383.72;;;24.18;68.57
8699;BME280;4386;51.236;6.742;2022-07-21T00:29:54;101380.34;;;24.16;68.52
8699;BME280;4386;51.236;6.742;2022-07-21T00:30:56;101383.25;;;24.14;68.60
8699;BME280;4386;51.236;6.742;2022-07-21T00:31:58;101371.09;;;24.10;68.65
8699;BME280;4386;51.236;6.742;2022-07-21T00:33:02;101368.75;;;24.07;68.58
8699;BME280;4386;51.236;6.742;2022-07-21T00:34:05;101369.78;;;24.06;68.96
8699;BME280;4386;51.236;6.742;2022-07-21T00:35:08;101373.50;;;24.05;69.26
8699;BME280;4386;51.236;6.742;2022-07-21T00:36:11;101377.91;;;24.06;69.29
8699;BME280;4386;51.236;6.742;2022-07-21T00:37:13;101372.03;;;24.03;69.26
8699;BME280;4386;51.236;6.742;2022-07-21T00:38:15;101371.41;;;24.01;69.75
8699;BME280;4386;51.236;6.742;2022-07-21T00:39:17;101369.91;;;23.98;69.49
8699;BME280;4386;51.236;6.742;2022-07-21T00:40:20;101356.75;;;23.95;69.91
8699;BME280;4386;51.236;6.742;2022-07-21T00:41:22;101363.38;;;23.93;69.77
8699;BME280;4386;51.236;6.742;2022-07-21T00:42:26;101365.44;;;23.91;70.13
8699;BME280;4386;51.236;6.742;2022-07-21T00:43:28;101362.91;;;23.89;70.03
8699;BME280;4386;51.236;6.742;2022-07-21T00:44:31;101366.66;;;23.88;70.09
8699;BME280;4386;51.236;6.742;2022-07-21T00:45:33;101368.53;;;23.88;70.37
8699;BME280;4386;51.236;6.742;2022-07-21T00:46:36;101369.38;;;23.88;70.08
8699;BME280;4386;51.236;6.742;2022-07-21T00:47:38;101370.22;;;23.89;70.58
8699;BME280;4386;51.236;6.742;2022-07-21T00:48:41;101379.16;;;23.89;70.45
8699;BME280;4386;51.236;6.742;2022-07-21T00:49:44;101373.75;;;23.89;70.74
8699;BME280;4386;51.236;6.742;2022-07-21T00:50:47;101370.00;;;23.90;70.98
8699;BME280;4386;51.236;6.742;2022-07-21T00:51:49;101377.13;;;23.91;70.72
8699;BME280;4386;51.236;6.742;2022-07-21T00:52:51;101370.66;;;23.92;70.79
8699;BME280;4386;51.236;6.742;2022-07-21T00:53:53;101367.94;;;23.92;70.98
8699;BME280;4386;51.236;6.742;2022-07-21T00:54:56;101371.69;;;23.91;70.79
8699;BME280;4386;51.236;6.742;2022-07-21T00:55:58;101365.44;;;23.91;70.79
8699;BME280;4386;51.236;6.742;2022-07-21T00:57:01;101360.88;;;23.91;70.60
8699;BME280;4386;51.236;6.742;2022-07-21T00:58:03;101370.00;;;23.90;71.06
8699;BME280;4386;51.236;6.742;2022-07-21T00:59:06;101363.75;;;23.90;70.63
8699;BME280;4386;51.236;6.742;2022-07-21T01:00:11;101370.22;;;23.89;70.75
8699;BME280;4386;51.236;6.742;2022-07-21T01:01:15;101374.59;;;23.90;70.57
8699;BME280;4386;51.236;6.742;2022-07-21T01:02:17;101370.00;;;23.90;70.68
8699;BME280;4386;51.236;6.742;2022-07-21T01:03:19;101370.84;;;23.91;70.78
8699;BME280;4386;51.236;6.742;2022-07-21T01:04:21;101383.75;;;23.89;70.77
8699;BME280;4386;51.236;6.742;2022-07-21T01:05:25;101381.22;;;23.87;70.66
8699;BME280;4386;51.236;6.742;2022-07-21T01:06:27;101380.59;;;23.85;71.28
8699;BME280;4386;51.236;6.742;2022-07-21T01:07:29;101383.69;;;23.82;71.08
8699;BME280;4386;51.236;6.742;2022-07-21T01:08:31;101380.31;;;23.80;71.14
8699;BME280;4386;51.236;6.742;2022-07-21T01:09:35;101378.63;;;23.79;71.27
8699;BME280;4386;51.236;6.742;2022-07-21T01:10:37;101374.44;;;23.76;71.16
8699;BME280;4386;51.236;6.742;2022-07-21T01:11:41;101375.66;;;23.74;71.54
8699;BME280;4386;51.236;6.742;2022-07-21T01:12:44;101379.38;;;23.73;71.50
8699;BME280;4386;51.236;6.742;2022-07-21T01:13:47;101379.97;;;23.68;71.29
8699;BME280;4386;51.236;6.742;2022-07-21T01:14:49;101381.16;;;23.66;71.18
8699;BME280;4386;51.236;6.742;2022-07-21T01:15:51;101384.91;;;23.65;71.35
8699;BME280;4386;51.236;6.742;2022-07-21T01:16:53;101377.19;;;23.62;71.63
8699;BME280;4386;51.236;6.742;2022-07-21T01:17:56;101380.91;;;23.61;71.34
8699;BME280;4386;51.236;6.742;2022-07-21T01:18:58;101386.50;;;23.59;71.39
8699;BME280;4386;51.236;6.742;2022-07-21T01:20:04;101380.25;;;23.59;71.52
8699;BME280;4386;51.236;6.742;2022-07-21T01:21:18;101390.88;;;23.60;71.75
8699;BME280;4386;51.236;6.742;2022-07-21T01:22:29;101390.72;;;23.62;71.99
8699;BME280;4386;51.236;6.742;2022-07-21T01:23:31;101390.72;;;23.62;71.67
8699;BME280;4386;51.236;6.742;2022-07-21T01:24:34;101386.78;;;23.64;71.84
8699;BME280;4386;51.236;6.742;2022-07-21T01:25:35;101391.97;;;23.66;72.26
8699;BME280;4386;51.236;6.742;2022-07-21T01:26:41;101386.78;;;23.64;72.18
8699;BME280;4386;51.236;6.742;2022-07-21T01:27:43;101385.09;;;23.63;72.07
8699;BME280;4386;51.236;6.742;2022-07-21T01:28:45;101387.63;;;23.65;71.99
8699;BME280;4386;51.236;6.742;2022-07-21T01:29:47;101388.63;;;23.64;71.88
8699;BME280;4386;51.236;6.742;2022-07-21T01:30:49;101399.28;;;23.65;71.82
8699;BME280;4386;51.236;6.742;2022-07-21T01:31:51;101393.03;;;23.65;72.08
8699;BME280;4386;51.236;6.742;2022-07-21T01:32:54;101397.59;;;23.64;71.81
8699;BME280;4386;51.236;6.742;2022-07-21T01:33:56;101399.28;;;23.65;72.16
8699;BME280;4386;51.236;6.742;2022-07-21T01:34:58;101400.94;;;23.66;71.94
8699;BME280;4386;51.236;6.742;2022-07-21T01:36:00;101400.09;;;23.66;72.01
8699;BME280;4386;51.236;6.742;2022-07-21T01:37:04;101395.53;;;23.66;72.25
8699;BME280;4386;51.236;6.742;2022-07-21T01:38:05;101391.19;;;23.65;71.96
8699;BME280;4386;51.236;6.742;2022-07-21T01:39:28;101390.97;;;23.67;71.98
8699;BME280;4386;51.236;6.742;2022-07-21T01:40:56;101391.81;;;23.67;71.82
8699;BME280;4386;51.236;6.742;2022-07-21T01:42:16;101398.06;;;23.68;71.48
8699;BME280;4386;51.236;6.742;2022-07-21T01:43:18;101389.94;;;23.68;71.58
8699;BME280;4386;51.236;6.742;2022-07-21T01:44:20;101388.94;;;23.69;71.47
8699;BME280;4386;51.236;6.742;2022-07-21T01:45:22;101393.28;;;23.70;71.74
8699;BME280;4386;51.236;6.742;2022-07-21T01:46:25;101401.41;;;23.70;71.29
8699;BME280;4386;51.236;6.742;2022-07-21T01:47:27;101401.41;;;23.70;71.07
8699;BME280;4386;51.236;6.742;2022-07-21T01:48:30;101394.34;;;23.69;70.63
8699;BME280;4386;51.236;6.742;2022-07-21T01:49:31;101391.81;;;23.67;70.90
8699;BME280;4386;51.236;6.742;2022-07-21T01:50:34;101391.63;;;23.69;70.64
8699;BME280;4386;51.236;6.742;2022-07-21T01:51:36;101402.47;;;23.69;70.45
8699;BME280;4386;51.236;6.742;2022-07-21T01:52:40;101403.94;;;23.71;70.42
8699;BME280;4386;51.236;6.742;2022-07-21T01:53:42;101399.56;;;23.70;70.65
8699;BME280;4386;51.236;6.742;2022-07-21T01:54:44;101399.19;;;23.73;70.39
8699;BME280;4386;51.236;6.742;2022-07-21T01:55:46;101403.75;;;23.73;70.48
8699;BME280;4386;51.236;6.742;2022-07-21T01:56:49;101400.66;;;23.76;70.52
8699;BME280;4386;51.236;6.742;2022-07-21T01:57:51;101397.94;;;23.76;70.32
8699;BME280;4386;51.236;6.742;2022-07-21T01:58:55;101402.97;;;23.79;70.52
8699;BME280;4386;51.236;6.742;2022-07-21T01:59:57;101411.78;;;23.81;70.46
8699;BME280;4386;51.236;6.742;2022-07-21T02:01:00;101400.94;;;23.81;70.81
8699;BME280;4386;51.236;6.742;2022-07-21T02:02:02;101405.34;;;23.82;70.81
8699;BME280;4386;51.236;6.742;2022-07-21T02:03:05;101402.63;;;23.82;70.70
8699;BME280;4386;51.236;6.742;2022-07-21T02:04:06;101399.09;;;23.81;70.67
8699;BME280;4386;51.236;6.742;2022-07-21T02:05:09;101396.56;;;23.80;70.49
8699;BME280;4386;51.236;6.742;2022-07-21T02:06:11;101400.28;;;23.79;70.70
8699;BME280;4386;51.236;6.742;2022-07-21T02:07:14;101386.75;;;23.79;70.86
8699;BME280;4386;51.236;6.742;2022-07-21T02:08:17;101387.78;;;23.78;70.71
8699;BME280;4386;51.236;6.742;2022-07-21T02:09:20;101384.88;;;23.79;70.62
8699;BME280;4386;51.236;6.742;2022-07-21T02:10:21;101395.72;;;23.79;70.85
8699;BME280;4386;51.236;6.742;2022-07-21T02:11:24;101393.00;;;23.79;70.91
8699;BME280;4386;51.236;6.742;2022-07-21T02:12:26;101384.69;;;23.81;71.09
8699;BME280;4386;51.236;6.742;2022-07-21T02:13:28;101382.38;;;23.78;70.98
8699;BME280;4386;51.236;6.742;2022-07-21T02:14:30;101389.81;;;23.76;71.00
8699;BME280;4386;51.236;6.742;2022-07-21T02:15:33;101386.31;;;23.75;71.24
8699;BME280;4386;51.236;6.742;2022-07-21T02:16:34;101381.06;;;23.74;70.79
8699;BME280;4386;51.236;6.742;2022-07-21T02:17:37;101388.56;;;23.72;70.80
8699;BME280;4386;51.236;6.742;2022-07-21T02:18:39;101387.88;;;23.70;70.91
8699;BME280;4386;51.236;6.742;2022-07-21T02:19:41;101387.25;;;23.68;71.04
8699;BME280;4386;51.236;6.742;2022-07-21T02:20:43;101381.16;;;23.66;71.08
8699;BME280;4386;51.236;6.742;2022-07-21T02:21:48;101383.22;;;23.64;71.14
8699;BME280;4386;51.236;6.742;2022-07-21T02:22:50;101387.78;;;23.63;70.88
8699;BME280;4386;51.236;6.742;2022-07-21T02:23:55;101381.38;;;23.64;71.20
8699;BME280;4386;51.236;6.742;2022-07-21T02:24:56;101375.09;;;23.64;70.75
8699;BME280;4386;51.236;6.742;2022-07-21T02:26:00;101377.19;;;23.62;70.79
8699;BME280;4386;51.236;6.742;2022-07-21T02:27:02;101379.22;;;23.60;70.94
8699;BME280;4386;51.236;6.742;2022-07-21T02:28:05;101380.25;;;23.59;71.26
8699;BME280;4386;51.236;6.742;2022-07-21T02:29:07;101381.06;;;23.59;71.12
8699;BME280;4386;51.236;6.742;2022-07-21T02:30:11;101375.88;;;23.58;71.26
8699;BME280;4386;51.236;6.742;2022-07-21T02:31:13;101378.56;;;23.58;71.33
8699;BME280;4386;51.236;6.742;2022-07-21T02:32:16;101381.44;;;23.56;71.61
8699;BME280;4386;51.236;6.742;2022-07-21T02:33:18;101379.97;;;23.54;71.19
8699;BME280;4386;51.236;6.742;2022-07-21T02:34:20;101378.28;;;23.53;71.46
8699;BME280;4386;51.236;6.742;2022-07-21T02:35:23;101382.03;;;23.52;71.58
8699;BME280;4386;51.236;6.742;2022-07-21T02:36:25;101380.34;;;23.51;71.51
8699;BME280;4386;51.236;6.742;2022-07-21T02:37:28;101383.69;;;23.53;71.74
8699;BME280;4386;51.236;6.742;2022-07-21T02:38:29;101384.38;;;23.55;72.05
8699;BME280;4386;51.236;6.742;2022-07-21T02:39:33;101383.34;;;23.56;72.20
8699;BME280;4386;51.236;6.742;2022-07-21T02:40:35;101388.75;;;23.56;72.10
8699;BME280;4386;51.236;6.742;2022-07-21T02:41:38;101384.38;;;23.55;72.07
8699;BME280;4386;51.236;6.742;2022-07-21T02:42:40;101388.09;;;23.54;72.32
8699;BME280;4386;51.236;6.742;2022-07-21T02:43:42;101386.59;;;23.51;72.25
8699;BME280;4386;51.236;6.742;2022-07-21T02:44:44;101388.84;;;23.48;72.09
8699;BME280;4386;51.236;6.742;2022-07-21T02:45:47;101388.19;;;23.46;72.29
8699;BME280;4386;51.236;6.742;2022-07-21T02:46:48;101379.41;;;23.44;72.30
8699;BME280;4386;51.236;6.742;2022-07-21T02:48:53;101387.16;;;23.47;72.78
8699;BME280;4386;51.236;6.742;2022-07-21T02:49:56;101392.56;;;23.47;72.74
8699;BME280;4386;51.236;6.742;2022-07-21T02:50:58;101386.50;;;23.45;72.65
8699;BME280;4386;51.236;6.742;2022-07-21T02:53:05;101378.38;;;23.45;72.89
8699;BME280;4386;51.236;6.742;2022-07-21T02:54:08;101388.19;;;23.46;72.86
8699;BME280;4386;51.236;6.742;2022-07-21T02:55:12;101382.78;;;23.46;72.98
8699;BME280;4386;51.236;6.742;2022-07-21T02:56:15;101386.13;;;23.48;72.99
8699;BME280;4386;51.236;6.742;2022-07-21T02:57:17;101389.84;;;23.47;73.36
8699;BME280;4386;51.236;6.742;2022-07-21T02:58:20;101384.06;;;23.50;73.24
8699;BME280;4386;51.236;6.742;2022-07-21T02:59:23;101370.75;;;23.48;73.33
8699;BME280;4386;51.236;6.742;2022-07-21T03:00:25;101380.72;;;23.48;73.37
8699;BME280;4386;51.236;6.742;2022-07-21T03:01:27;101375.31;;;23.48;73.82
8699;BME280;4386;51.236;6.742;2022-07-21T03:02:30;101380.09;;;23.46;73.38
8699;BME280;4386;51.236;6.742;2022-07-21T03:03:34;101370.91;;;23.47;73.30
8699;BME280;4386;51.236;6.742;2022-07-21T03:04:37;101374.00;;;23.44;73.90
8699;BME280;4386;51.236;6.742;2022-07-21T03:05:39;101376.06;;;23.42;73.50
8699;BME280;4386;51.236;6.742;2022-07-21T03:06:42;101372.50;;;23.41;73.71
8699;BME280;4386;51.236;6.742;2022-07-21T03:07:43;101366.25;;;23.41;73.75
8699;BME280;4386;51.236;6.742;2022-07-21T03:08:46;101368.97;;;23.41;73.90
8699;BME280;4386;51.236;6.742;2022-07-21T03:09:48;101366.44;;;23.39;73.81
8699;BME280;4386;51.236;6.742;2022-07-21T03:10:51;101365.59;;;23.39;73.62
8699;BME280;4386;51.236;6.742;2022-07-21T03:11:53;101361.41;;;23.36;73.76
8699;BME280;4386;51.236;6.742;2022-07-21T03:12:56;101368.66;;;23.35;73.60
8699;BME280;4386;51.236;6.742;2022-07-21T03:13:57;101364.44;;;23.33;73.50
8699;BME280;4386;51.236;6.742;2022-07-21T03:15:00;101364.00;;;23.29;73.58
8699;BME280;4386;51.236;6.742;2022-07-21T03:16:02;101364.19;;;23.28;73.29
8699;BME280;4386;51.236;6.742;2022-07-21T03:17:05;101369.78;;;23.26;73.55
8699;BME280;4386;51.236;6.742;2022-07-21T03:18:06;101365.78;;;23.22;73.38
8699;BME280;4386;51.236;6.742;2022-07-21T03:19:09;101369.88;;;23.18;73.57
8699;BME280;4386;51.236;6.742;2022-07-21T03:20:14;101372.75;;;23.17;73.44
8699;BME280;4386;51.236;6.742;2022-07-21T03:21:16;101374.81;;;23.15;73.03
8699;BME280;4386;51.236;6.742;2022-07-21T03:22:18;101367.06;;;23.12;73.52
8699;BME280;4386;51.236;6.742;2022-07-21T03:23:22;101372.66;;;23.10;73.46
8699;BME280;4386;51.236;6.742;2022-07-21T03:24:23;101374.72;;;23.08;73.46
8699;BME280;4386;51.236;6.742;2022-07-21T03:25:27;101369.50;;;23.07;73.75
8699;BME280;4386;51.236;6.742;2022-07-21T03:26:30;101364.25;;;23.05;73.80
8699;BME280;4386;51.236;6.742;2022-07-21T03:27:33;101366.13;;;23.05;74.11
8699;BME280;4386;51.236;6.742;2022-07-21T03:28:37;101361.72;;;23.04;73.93
8699;BME280;4386;51.236;6.742;2022-07-21T03:29:40;101360.06;;;23.03;73.71
8699;BME280;4386;51.236;6.742;2022-07-21T03:30:41;101360.91;;;23.03;73.62
8699;BME280;4386;51.236;6.742;2022-07-21T03:31:44;101354.84;;;23.01;73.71
8699;BME280;4386;51.236;6.742;2022-07-21T03:32:45;101353.81;;;23.02;73.79
8699;BME280;4386;51.236;6.742;2022-07-21T03:33:48;101352.97;;;23.02;73.83
8699;BME280;4386;51.236;6.742;2022-07-21T03:34:51;101349.25;;;23.03;73.84
8699;BME280;4386;51.236;6.742;2022-07-21T03:35:52;101344.69;;;23.03;73.86
8699;BME280;4386;51.236;6.742;2022-07-21T03:36:55;101336.38;;;23.05;73.71
8699;BME280;4386;51.236;6.742;2022-07-21T03:37:59;101339.28;;;23.03;73.60
8699;BME280;4386;51.236;6.742;2022-07-21T03:39:01;101341.78;;;23.05;74.05
8699;BME280;4386;51.236;6.742;2022-07-21T03:40:05;101347.19;;;23.05;73.94
8699;BME280;4386;51.236;6.742;2022-07-21T03:41:07;101341.78;;;23.05;74.00
8699;BME280;4386;51.236;6.742;2022-07-21T03:42:15;101348.03;;;23.05;73.94
8699;BME280;4386;51.236;6.742;2022-07-21T03:43:17;101348.88;;;23.06;73.68
8699;BME280;4386;51.236;6.742;2022-07-21T03:44:19;101345.16;;;23.07;73.72
8699;BME280;4386;51.236;6.742;2022-07-21T03:45:22;101345.97;;;23.07;73.67
8699;BME280;4386;51.236;6.742;2022-07-21T03:46:25;101344.97;;;23.08;73.54
8699;BME280;4386;51.236;6.742;2022-07-21T03:47:26;101354.94;;;23.08;73.55
8699;BME280;4386;51.236;6.742;2022-07-21T03:48:29;101351.38;;;23.07;73.68
8699;BME280;4386;51.236;6.742;2022-07-21T03:49:31;101347.66;;;23.08;73.43
8699;BME280;4386;51.236;6.742;2022-07-21T03:50:34;101357.63;;;23.08;73.40
8699;BME280;4386;51.236;6.742;2022-07-21T03:51:37;101351.38;;;23.07;73.30
8699;BME280;4386;51.236;6.742;2022-07-21T03:52:39;101345.97;;;23.07;73.41
8699;BME280;4386;51.236;6.742;2022-07-21T03:53:42;101344.13;;;23.08;73.42
8699;BME280;4386;51.236;6.742;2022-07-21T03:54:43;101346.81;;;23.08;73.26
8699;BME280;4386;51.236;6.742;2022-07-21T03:55:46;101347.66;;;23.08;73.11
8699;BME280;4386;51.236;6.742;2022-07-21T03:56:49;101343.28;;;23.07;73.13
8699;BME280;4386;51.236;6.742;2022-07-21T03:57:54;101345.97;;;23.07;73.38
8699;BME280;4386;51.236;6.742;2022-07-21T03:58:57;101345.97;;;23.07;73.36
8699;BME280;4386;51.236;6.742;2022-07-21T03:59:58;101343.28;;;23.07;73.38
8699;BME280;4386;51.236;6.742;2022-07-21T04:01:03;101339.75;;;23.07;73.35
8699;BME280;4386;51.236;6.742;2022-07-21T04:02:05;101345.97;;;23.07;73.45
8699;BME280;4386;51.236;6.742;2022-07-21T04:03:08;101340.94;;;23.04;73.45
8699;BME280;4386;51.236;6.742;2022-07-21T04:04:10;101349.91;;;23.05;73.30
8699;BME280;4386;51.236;6.742;2022-07-21T04:05:13;101346.34;;;23.04;73.21
8699;BME280;4386;51.236;6.742;2022-07-21T04:06:15;101340.94;;;23.04;73.28
8699;BME280;4386;51.236;6.742;2022-07-21T04:07:18;101342.63;;;23.05;73.52
8699;BME280;4386;51.236;6.742;2022-07-21T04:08:19;101349.72;;;23.06;73.35
8699;BME280;4386;51.236;6.742;2022-07-21T04:09:22;101341.63;;;23.06;73.12
8699;BME280;4386;51.236;6.742;2022-07-21T04:10:26;101341.63;;;23.06;73.47
8699;BME280;4386;51.236;6.742;2022-07-21T04:11:29;101344.31;;;23.06;73.36
8699;BME280;4386;51.236;6.742;2022-07-21T04:12:31;101338.91;;;23.06;73.29
8699;BME280;4386;51.236;6.742;2022-07-21T04:13:35;101338.91;;;23.06;73.62
8699;BME280;4386;51.236;6.742;2022-07-21T04:14:37;101341.63;;;23.06;73.39
8699;BME280;4386;51.236;6.742;2022-07-21T04:15:40;101331.81;;;23.05;73.39
8699;BME280;4386;51.236;6.742;2022-07-21T04:16:42;101334.50;;;23.05;73.44
8699;BME280;4386;51.236;6.742;2022-07-21T04:17:45;101333.88;;;23.03;73.44
8699;BME280;4386;51.236;6.742;2022-07-21T04:18:47;101329.28;;;23.04;73.21
8699;BME280;4386;51.236;6.742;2022-07-21T04:19:50;101336.56;;;23.03;73.21
8699;BME280;4386;51.236;6.742;2022-07-21T04:20:58;101337.38;;;23.04;73.02
8699;BME280;4386;51.236;6.742;2022-07-21T04:22:00;101330.50;;;23.01;72.92
8699;BME280;4386;51.236;6.742;2022-07-21T04:23:02;101332.56;;;22.99;73.08
8699;BME280;4386;51.236;6.742;2022-07-21T04:24:06;101328.84;;;23.00;73.16
8699;BME280;4386;51.236;6.742;2022-07-21T04:25:08;101325.94;;;23.02;73.24
8699;BME280;4386;51.236;6.742;2022-07-21T04:26:11;101332.19;;;23.02;73.16
8699;BME280;4386;51.236;6.742;2022-07-21T04:27:12;101323.44;;;23.00;73.22
8699;BME280;4386;51.236;6.742;2022-07-21T04:28:15;101327.16;;;22.99;73.31
8699;BME280;4386;51.236;6.742;2022-07-21T04:29:19;101326.13;;;23.00;73.21
8699;BME280;4386;51.236;6.742;2022-07-21T04:30:22;101326.31;;;22.99;73.01
8699;BME280;4386;51.236;6.742;2022-07-21T04:31:25;101331.72;;;22.99;73.33
8699;BME280;4386;51.236;6.742;2022-07-21T04:32:26;101326.31;;;22.99;73.33
8699;BME280;4386;51.236;6.742;2022-07-21T04:33:29;101329.84;;;22.99;73.33
8699;BME280;4386;51.236;6.742;2022-07-21T04:34:38;101319.03;;;22.99;73.06
8699;BME280;4386;51.236;6.742;2022-07-21T04:35:40;101322.59;;;23.00;73.39
8699;BME280;4386;51.236;6.742;2022-07-21T04:36:43;101323.59;;;22.99;73.42
8699;BME280;4386;51.236;6.742;2022-07-21T04:37:45;101330.88;;;22.98;73.22
8699;BME280;4386;51.236;6.742;2022-07-21T04:38:47;101326.47;;;22.97;73.49
8699;BME280;4386;51.236;6.742;2022-07-21T04:39:50;101329.19;;;22.97;73.76
8699;BME280;4386;51.236;6.742;2022-07-21T04:40:53;101331.53;;;23.00;73.39
8699;BME280;4386;51.236;6.742;2022-07-21T04:41:55;101328.63;;;23.02;73.33
8699;BME280;4386;51.236;6.742;2022-07-21T04:42:58;101325.09;;;23.01;73.45
8699;BME280;4386;51.236;6.742;2022-07-21T04:44:01;101324.06;;;23.02;73.26
8699;BME280;4386;51.236;6.742;2022-07-21T04:45:07;101330.31;;;23.03;73.44
8699;BME280;4386;51.236;6.742;2022-07-21T04:46:10;101327.41;;;23.04;73.30
8699;BME280;4386;51.236;6.742;2022-07-21T04:47:16;101330.13;;;23.04;73.38
8699;BME280;4386;51.236;6.742;2022-07-21T04:48:19;101332.66;;;23.06;73.43
8699;BME280;4386;51.236;6.742;2022-07-21T04:49:21;101331.81;;;23.05;73.53
8699;BME280;4386;51.236;6.742;2022-07-21T04:50:26;101333.50;;;23.06;73.16
8699;BME280;4386;51.236;6.742;2022-07-21T04:51:28;101338.53;;;23.09;73.09
8699;BME280;4386;51.236;6.742;2022-07-21T04:52:30;101341.88;;;23.11;72.96
8699;BME280;4386;51.236;6.742;2022-07-21T04:53:32;101343.38;;;23.14;72.97
8699;BME280;4386;51.236;6.742;2022-07-21T04:54:34;101350.28;;;23.16;72.70
8699;BME280;4386;51.236;6.742;2022-07-21T04:55:36;101351.94;;;23.17;72.92
8699;BME280;4386;51.236;6.742;2022-07-21T04:56:40;101349.25;;;23.17;72.77
8699;BME280;4386;51.236;6.742;2022-07-21T04:57:43;101344.88;;;23.16;72.66
8699;BME280;4386;51.236;6.742;2022-07-21T04:58:45;101348.41;;;23.17;72.67
8699;BME280;4386;51.236;6.742;2022-07-21T04:59:47;101346.75;;;23.16;72.79
8699;BME280;4386;51.236;6.742;2022-07-21T05:00:51;101354.00;;;23.15;72.67
8699;BME280;4386;51.236;6.742;2022-07-21T05:01:53;101347.38;;;23.18;72.62
8699;BME280;4386;51.236;6.742;2022-07-21T05:02:56;101348.22;;;23.18;72.61
8699;BME280;4386;51.236;6.742;2022-07-21T05:03:57;101354.47;;;23.19;72.59
8699;BME280;4386;51.236;6.742;2022-07-21T05:05:00;101356.97;;;23.20;72.46
8699;BME280;4386;51.236;6.742;2022-07-21T05:06:03;101354.94;;;23.22;72.64
8699;BME280;4386;51.236;6.742;2022-07-21T05:07:05;101359.31;;;23.23;72.43
8699;BME280;4386;51.236;6.742;2022-07-21T05:08:07;101355.59;;;23.24;72.58
8699;BME280;4386;51.236;6.742;2022-07-21T05:09:10;101362.69;;;23.25;72.40
8699;BME280;4386;51.236;6.742;2022-07-21T05:10:13;101361.47;;;23.28;72.29
8699;BME280;4386;51.236;6.742;2022-07-21T05:11:16;101356.91;;;23.28;72.40
8699;BME280;4386;51.236;6.742;2022-07-21T05:12:18;101360.25;;;23.30;71.95
8699;BME280;4386;51.236;6.742;2022-07-21T05:13:20;101355.03;;;23.29;72.34
8699;BME280;4386;51.236;6.742;2022-07-21T05:14:22;101358.38;;;23.31;72.21
8699;BME280;4386;51.236;6.742;2022-07-21T05:15:25;101364.66;;;23.31;72.48
8699;BME280;4386;51.236;6.742;2022-07-21T05:16:28;101359.25;;;23.31;72.55
8699;BME280;4386;51.236;6.742;2022-07-21T05:17:31;101365.50;;;23.32;72.03
8699;BME280;4386;51.236;6.742;2022-07-21T05:18:33;101359.25;;;23.31;72.17
8699;BME280;4386;51.236;6.742;2022-07-21T05:19:36;101362.97;;;23.30;72.15
8699;BME280;4386;51.236;6.742;2022-07-21T05:20:38;101362.13;;;23.30;72.12
8699;BME280;4386;51.236;6.742;2022-07-21T05:21:40;101363.34;;;23.27;71.98
8699;BME280;4386;51.236;6.742;2022-07-21T05:22:42;101361.69;;;23.26;72.28
8699;BME280;4386;51.236;6.742;2022-07-21T05:23:44;101362.69;;;23.25;72.21
8699;BME280;4386;51.236;6.742;2022-07-21T05:24:47;101354.56;;;23.25;71.99
8699;BME280;4386;51.236;6.742;2022-07-21T05:25:49;101360.84;;;23.26;72.26
8699;BME280;4386;51.236;6.742;2022-07-21T05:26:51;101365.41;;;23.25;72.11
8699;BME280;4386;51.236;6.742;2022-07-21T05:27:54;101357.47;;;23.24;71.99
8699;BME280;4386;51.236;6.742;2022-07-21T05:28:55;101363.72;;;23.24;71.98
8699;BME280;4386;51.236;6.742;2022-07-21T05:29:58;101360.00;;;23.25;72.05
8699;BME280;4386;51.236;6.742;2022-07-21T05:31:00;101358.31;;;23.24;72.18
8699;BME280;4386;51.236;6.742;2022-07-21T05:32:04;101355.59;;;23.24;71.96
8699;BME280;4386;51.236;6.742;2022-07-21T05:33:06;101363.72;;;23.24;71.91
8699;BME280;4386;51.236;6.742;2022-07-21T05:34:08;101365.56;;;23.24;71.91
8699;BME280;4386;51.236;6.742;2022-07-21T05:35:10;101359.31;;;23.23;72.00
8699;BME280;4386;51.236;6.742;2022-07-21T05:36:13;101362.22;;;23.22;71.97
8699;BME280;4386;51.236;6.742;2022-07-21T05:37:16;101364.09;;;23.21;71.68
8699;BME280;4386;51.236;6.742;2022-07-21T05:38:17;101360.53;;;23.21;71.63
8699;BME280;4386;51.236;6.742;2022-07-21T05:39:28;101369.88;;;23.18;72.02